sensor_id;sensor_type;location;lat;lon;timestamp;P1;durP1;ratioP1;P2;durP2;ratioP2
77738;SDS011;66904;59.926;30.404;2023-01-19T00:04:43;1.33;;;0.47;;
77738;SDS011;66904;59.926;30.404;2023-01-19T00:09:44;0.85;;;0.45;;
77738;SDS011;66904;59.926;30.404;2023-01-19T00:14:44;0.80;;;0.50;;
77738;SDS011;66904;59.926;30.404;2023-01-19T00:19:45;0.77;;;0.30;;
77738;SDS011;66904;59.926;30.404;2023-01-19T00:24:45;1.42;;;0.43;;
77738;SDS011;66904;59.926;30.404;2023-01-19T00:41:42;0.88;;;0.60;;
77738;SDS011;66904;59.926;30.404;2023-01-19T00:53:16;0.82;;;0.57;;
77738;SDS011;66904;59.926;30.404;2023-01-19T00:58:16;0.53;;;0.30;;
77738;SDS011;66904;59.926;30.404;2023-01-19T01:08:29;0.70;;;0.43;;
77738;SDS011;66904;59.926;30.404;2023-01-19T01:13:39;0.57;;;0.30;;
77738;SDS011;66904;59.926;30.404;2023-01-19T01:19:13;0.28;;;0.20;;
77738;SDS011;66904;59.926;30.404;2023-01-19T01:24:51;0.88;;;0.40;;
77738;SDS011;66904;59.926;30.404;2023-01-19T01:29:57;0.88;;;0.40;;
77738;SDS011;66904;59.926;30.404;2023-01-19T01:35:16;1.27;;;0.50;;
77738;SDS011;66904;59.926;30.404;2023-01-19T01:40:18;1.73;;;0.75;;
77738;SDS011;66904;59.926;30.404;2023-01-19T01:51:03;0.95;;;0.45;;
77738;SDS011;66904;59.926;30.404;2023-01-19T01:56:35;1.42;;;0.63;;
77738;SDS011;66904;59.926;30.404;2023-01-19T02:02:16;1.55;;;0.88;;
77738;SDS011;66904;59.926;30.404;2023-01-19T02:08:02;2.03;;;1.02;;
77738;SDS011;66904;59.926;30.404;2023-01-19T02:13:40;1.35;;;0.65;;
77738;SDS011;66904;59.926;30.404;2023-01-19T02:19:14;1.35;;;0.80;;
77738;SDS011;66904;59.926;30.404;2023-01-19T02:24:25;2.22;;;1.13;;
77738;SDS011;66904;59.926;30.404;2023-01-19T02:29:44;1.45;;;0.98;;
77738;SDS011;66904;59.926;30.404;2023-01-19T02:40:44;1.17;;;0.65;;
77738;SDS011;66904;59.926;30.404;2023-01-19T02:45:46;1.50;;;0.82;;
77738;SDS011;66904;59.926;30.404;2023-01-19T02:50:48;1.80;;;1.02;;
77738;SDS011;66904;59.926;30.404;2023-01-19T02:55:57;1.30;;;0.60;;
77738;SDS011;66904;59.926;30.404;2023-01-19T03:01:15;1.75;;;0.85;;
77738;SDS011;66904;59.926;30.404;2023-01-19T05:07:29;3.92;;;1.60;;
77738;SDS011;66904;59.926;30.404;2023-01-19T05:12:30;3.67;;;1.67;;
77738;SDS011;66904;59.926;30.404;2023-01-19T05:17:31;3.97;;;1.40;;
77738;SDS011;66904;59.926;30.404;2023-01-19T05:22:32;1.90;;;0.85;;
77738;SDS011;66904;59.926;30.404;2023-01-19T05:27:32;2.63;;;0.90;;
77738;SDS011;66904;59.926;30.404;2023-01-19T05:32:33;1.50;;;0.80;;
77738;SDS011;66904;59.926;30.404;2023-01-19T05:37:33;2.55;;;1.13;;
77738;SDS011;66904;59.926;30.404;2023-01-19T05:42:34;1.45;;;0.60;;
77738;SDS011;66904;59.926;30.404;2023-01-19T05:47:35;0.90;;;0.50;;
77738;SDS011;66904;59.926;30.404;2023-01-19T05:52:36;2.08;;;0.60;;
77738;SDS011;66904;59.926;30.404;2023-01-19T05:57:36;2.22;;;1.20;;
77738;SDS011;66904;59.926;30.404;2023-01-19T06:02:37;2.22;;;0.50;;
77738;SDS011;66904;59.926;30.404;2023-01-19T06:07:37;1.30;;;0.70;;
77738;SDS011;66904;59.926;30.404;2023-01-19T06:12:38;1.50;;;0.40;;
77738;SDS011;66904;59.926;30.404;2023-01-19T06:17:40;1.50;;;0.60;;
77738;SDS011;66904;59.926;30.404;2023-01-19T06:22:41;0.85;;;0.35;;
77738;SDS011;66904;59.926;30.404;2023-01-19T06:27:42;1.95;;;0.57;;
77738;SDS011;66904;59.926;30.404;2023-01-19T06:32:44;1.15;;;0.40;;
77738;SDS011;66904;59.926;30.404;2023-01-19T06:37:44;1.95;;;0.40;;
77738;SDS011;66904;59.926;30.404;2023-01-19T06:42:45;1.00;;;0.30;;
77738;SDS011;66904;59.926;30.404;2023-01-19T06:47:47;0.73;;;0.30;;
77738;SDS011;66904;59.926;30.404;2023-01-19T06:52:50;0.70;;;0.40;;
77738;SDS011;66904;59.926;30.404;2023-01-19T06:57:55;0.88;;;0.50;;
77738;SDS011;66904;59.926;30.404;2023-01-19T07:02:57;0.75;;;0.32;;
77738;SDS011;66904;59.926;30.404;2023-01-19T07:07:57;1.65;;;0.43;;
77738;SDS011;66904;59.926;30.404;2023-01-19T07:12:58;1.88;;;0.45;;
77738;SDS011;66904;59.926;30.404;2023-01-19T07:17:58;1.30;;;0.40;;
77738;SDS011;66904;59.926;30.404;2023-01-19T07:23:00;1.42;;;0.30;;
77738;SDS011;66904;59.926;30.404;2023-01-19T07:28:02;0.77;;;0.40;;
77738;SDS011;66904;59.926;30.404;2023-01-19T07:33:02;1.30;;;0.50;;
77738;SDS011;66904;59.926;30.404;2023-01-19T07:38:03;1.45;;;0.50;;
77738;SDS011;66904;59.926;30.404;2023-01-19T07:43:03;1.15;;;0.35;;
77738;SDS011;66904;59.926;30.404;2023-01-19T07:48:04;1.07;;;0.37;;
77738;SDS011;66904;59.926;30.404;2023-01-19T07:53:05;2.20;;;0.65;;
77738;SDS011;66904;59.926;30.404;2023-01-19T07:58:07;1.13;;;0.57;;
77738;SDS011;66904;59.926;30.404;2023-01-19T08:03:08;1.30;;;0.50;;
77738;SDS011;66904;59.926;30.404;2023-01-19T08:08:09;0.80;;;0.50;;
77738;SDS011;66904;59.926;30.404;2023-01-19T08:13:13;0.68;;;0.30;;
77738;SDS011;66904;59.926;30.404;2023-01-19T08:18:19;1.35;;;0.50;;
77738;SDS011;66904;59.926;30.404;2023-01-19T08:23:20;4.60;;;0.70;;
77738;SDS011;66904;59.926;30.404;2023-01-19T08:28:21;1.15;;;0.50;;
77738;SDS011;66904;59.926;30.404;2023-01-19T08:33:22;1.20;;;0.40;;
77738;SDS011;66904;59.926;30.404;2023-01-19T08:38:24;2.33;;;0.60;;
77738;SDS011;66904;59.926;30.404;2023-01-19T08:43:24;2.38;;;0.60;;
77738;SDS011;66904;59.926;30.404;2023-01-19T08:48:25;1.73;;;0.60;;
77738;SDS011;66904;59.926;30.404;2023-01-19T08:53:25;1.65;;;0.55;;
77738;SDS011;66904;59.926;30.404;2023-01-19T08:58:26;1.70;;;0.60;;
77738;SDS011;66904;59.926;30.404;2023-01-19T09:03:27;1.55;;;0.77;;
77738;SDS011;66904;59.926;30.404;2023-01-19T09:08:28;1.25;;;0.30;;
77738;SDS011;66904;59.926;30.404;2023-01-19T09:13:29;0.75;;;0.30;;
77738;SDS011;66904;59.926;30.404;2023-01-19T09:18:29;1.58;;;0.38;;
77738;SDS011;66904;59.926;30.404;2023-01-19T09:23:30;2.63;;;0.50;;
77738;SDS011;66904;59.926;30.404;2023-01-19T09:28:30;1.27;;;0.40;;
77738;SDS011;66904;59.926;30.404;2023-01-19T09:33:31;1.63;;;0.40;;
77738;SDS011;66904;59.926;30.404;2023-01-19T09:38:33;0.88;;;0.40;;
77738;SDS011;66904;59.926;30.404;2023-01-19T09:43:34;1.27;;;0.20;;
77738;SDS011;66904;59.926;30.404;2023-01-19T09:48:45;0.50;;;0.20;;
77738;SDS011;66904;59.926;30.404;2023-01-19T09:53:55;0.50;;;0.40;;
77738;SDS011;66904;59.926;30.404;2023-01-19T09:59:02;1.58;;;0.35;;
77738;SDS011;66904;59.926;30.404;2023-01-19T10:04:27;1.63;;;0.30;;
77738;SDS011;66904;59.926;30.404;2023-01-19T10:09:33;2.10;;;0.30;;
77738;SDS011;66904;59.926;30.404;2023-01-19T10:20:27;0.90;;;0.32;;
77738;SDS011;66904;59.926;30.404;2023-01-19T10:25:34;0.68;;;0.30;;
77738;SDS011;66904;59.926;30.404;2023-01-19T10:30:35;2.13;;;0.63;;
77738;SDS011;66904;59.926;30.404;2023-01-19T10:35:35;0.68;;;0.30;;
77738;SDS011;66904;59.926;30.404;2023-01-19T10:40:42;0.57;;;0.27;;
77738;SDS011;66904;59.926;30.404;2023-01-19T10:46:13;1.42;;;0.43;;
77738;SDS011;66904;59.926;30.404;2023-01-19T10:51:16;0.90;;;0.32;;
77738;SDS011;66904;59.926;30.404;2023-01-19T10:56:24;1.48;;;0.40;;
77738;SDS011;66904;59.926;30.404;2023-01-19T11:01:37;1.42;;;0.50;;
77738;SDS011;66904;59.926;30.404;2023-01-19T11:06:37;0.77;;;0.32;;
77738;SDS011;66904;59.926;30.404;2023-01-19T11:11:42;0.75;;;0.32;;
77738;SDS011;66904;59.926;30.404;2023-01-19T11:16:46;1.27;;;0.40;;
77738;SDS011;66904;59.926;30.404;2023-01-19T11:21:49;0.98;;;0.40;;
77738;SDS011;66904;59.926;30.404;2023-01-19T11:26:53;0.68;;;0.30;;
77738;SDS011;66904;59.926;30.404;2023-01-19T11:32:14;1.42;;;0.43;;
77738;SDS011;66904;59.926;30.404;2023-01-19T11:42:25;0.40;;;0.20;;
77738;SDS011;66904;59.926;30.404;2023-01-19T11:47:32;1.52;;;0.40;;
77738;SDS011;66904;59.926;30.404;2023-01-19T11:52:42;0.75;;;0.35;;
77738;SDS011;66904;59.926;30.404;2023-01-19T11:57:47;1.23;;;0.40;;
77738;SDS011;66904;59.926;30.404;2023-01-19T12:02:51;1.23;;;0.38;;
77738;SDS011;66904;59.926;30.404;2023-01-19T12:07:58;0.82;;;0.28;;
77738;SDS011;66904;59.926;30.404;2023-01-19T12:13:02;0.60;;;0.30;;
77738;SDS011;66904;59.926;30.404;2023-01-19T12:18:04;6.82;;;0.63;;
77738;SDS011;66904;59.926;30.404;2023-01-19T12:28:31;2.90;;;0.45;;
77738;SDS011;66904;59.926;30.404;2023-01-19T12:33:37;0.60;;;0.30;;
77738;SDS011;66904;59.926;30.404;2023-01-19T12:38:45;0.65;;;0.30;;
77738;SDS011;66904;59.926;30.404;2023-01-19T12:44:13;2.53;;;0.40;;
77738;SDS011;66904;59.926;30.404;2023-01-19T12:54:30;0.73;;;0.30;;
77738;SDS011;66904;59.926;30.404;2023-01-19T12:59:32;3.08;;;0.45;;
77738;SDS011;66904;59.926;30.404;2023-01-19T13:04:36;4.65;;;0.77;;
77738;SDS011;66904;59.926;30.404;2023-01-19T13:09:37;0.70;;;0.30;;
77738;SDS011;66904;59.926;30.404;2023-01-19T13:14:39;0.70;;;0.32;;
77738;SDS011;66904;59.926;30.404;2023-01-19T13:19:44;0.57;;;0.30;;
77738;SDS011;66904;59.926;30.404;2023-01-19T13:25:04;2.25;;;0.45;;
77738;SDS011;66904;59.926;30.404;2023-01-19T13:30:15;1.45;;;0.32;;
77738;SDS011;66904;59.926;30.404;2023-01-19T13:35:18;1.42;;;0.52;;
77738;SDS011;66904;59.926;30.404;2023-01-19T13:40:23;1.33;;;0.50;;
77738;SDS011;66904;59.926;30.404;2023-01-19T13:45:33;0.90;;;0.20;;
77738;SDS011;66904;59.926;30.404;2023-01-19T13:50:37;3.05;;;0.25;;
77738;SDS011;66904;59.926;30.404;2023-01-19T13:55:41;0.63;;;0.25;;
77738;SDS011;66904;59.926;30.404;2023-01-19T14:00:44;1.30;;;0.35;;
77738;SDS011;66904;59.926;30.404;2023-01-19T14:05:48;4.10;;;0.40;;
77738;SDS011;66904;59.926;30.404;2023-01-19T14:15:54;1.83;;;0.25;;
77738;SDS011;66904;59.926;30.404;2023-01-19T14:21:03;1.30;;;0.30;;
77738;SDS011;66904;59.926;30.404;2023-01-19T14:31:46;0.93;;;0.30;;
77738;SDS011;66904;59.926;30.404;2023-01-19T14:37:00;1.70;;;0.40;;
77738;SDS011;66904;59.926;30.404;2023-01-19T14:42:03;2.10;;;0.40;;
77738;SDS011;66904;59.926;30.404;2023-01-19T14:47:06;2.20;;;0.30;;
77738;SDS011;66904;59.926;30.404;2023-01-19T14:52:28;0.90;;;0.52;;
77738;SDS011;66904;59.926;30.404;2023-01-19T14:57:33;4.13;;;0.60;;
77738;SDS011;66904;59.926;30.404;2023-01-19T15:02:35;4.32;;;0.65;;
77738;SDS011;66904;59.926;30.404;2023-01-19T15:07:36;0.90;;;0.40;;
77738;SDS011;66904;59.926;30.404;2023-01-19T15:12:39;2.35;;;0.75;;
77738;SDS011;66904;59.926;30.404;2023-01-19T15:17:39;2.72;;;0.73;;
77738;SDS011;66904;59.926;30.404;2023-01-19T15:22:40;2.65;;;0.47;;
77738;SDS011;66904;59.926;30.404;2023-01-19T15:27:41;3.10;;;0.77;;
77738;SDS011;66904;59.926;30.404;2023-01-19T15:32:42;2.33;;;0.45;;
77738;SDS011;66904;59.926;30.404;2023-01-19T15:37:43;2.58;;;0.70;;
77738;SDS011;66904;59.926;30.404;2023-01-19T15:42:45;2.05;;;0.90;;
77738;SDS011;66904;59.926;30.404;2023-01-19T15:47:45;1.27;;;0.52;;
77738;SDS011;66904;59.926;30.404;2023-01-19T15:52:45;1.88;;;0.50;;
77738;SDS011;66904;59.926;30.404;2023-01-19T15:57:46;1.73;;;0.67;;
77738;SDS011;66904;59.926;30.404;2023-01-19T16:02:47;1.40;;;0.65;;
77738;SDS011;66904;59.926;30.404;2023-01-19T16:07:50;1.70;;;0.43;;
77738;SDS011;66904;59.926;30.404;2023-01-19T16:12:51;2.85;;;0.60;;
77738;SDS011;66904;59.926;30.404;2023-01-19T16:17:52;2.08;;;0.52;;
77738;SDS011;66904;59.926;30.404;2023-01-19T16:22:52;8.95;;;4.53;;
77738;SDS011;66904;59.926;30.404;2023-01-19T16:27:53;2.40;;;1.33;;
77738;SDS011;66904;59.926;30.404;2023-01-19T16:32:53;1.80;;;0.82;;
77738;SDS011;66904;59.926;30.404;2023-01-19T16:37:54;2.55;;;0.82;;
77738;SDS011;66904;59.926;30.404;2023-01-19T16:42:54;3.17;;;0.88;;
77738;SDS011;66904;59.926;30.404;2023-01-19T16:47:55;5.40;;;1.52;;
77738;SDS011;66904;59.926;30.404;2023-01-19T16:52:55;11.65;;;3.95;;
77738;SDS011;66904;59.926;30.404;2023-01-19T16:57:56;14.95;;;3.63;;
77738;SDS011;66904;59.926;30.404;2023-01-19T17:02:57;12.63;;;3.20;;
77738;SDS011;66904;59.926;30.404;2023-01-19T17:07:57;7.80;;;2.10;;
77738;SDS011;66904;59.926;30.404;2023-01-19T17:12:58;6.50;;;1.70;;
77738;SDS011;66904;59.926;30.404;2023-01-19T17:17:58;4.75;;;1.30;;
77738;SDS011;66904;59.926;30.404;2023-01-19T17:22:59;5.33;;;1.30;;
77738;SDS011;66904;59.926;30.404;2023-01-19T17:27:59;2.55;;;1.08;;
77738;SDS011;66904;59.926;30.404;2023-01-19T17:33:00;4.22;;;1.13;;
77738;SDS011;66904;59.926;30.404;2023-01-19T17:38:00;3.67;;;1.10;;
77738;SDS011;66904;59.926;30.404;2023-01-19T17:43:01;3.22;;;0.88;;
77738;SDS011;66904;59.926;30.404;2023-01-19T17:48:02;1.85;;;0.63;;
77738;SDS011;66904;59.926;30.404;2023-01-19T17:53:03;5.07;;;0.98;;
77738;SDS011;66904;59.926;30.404;2023-01-19T17:58:04;3.15;;;0.88;;
77738;SDS011;66904;59.926;30.404;2023-01-19T18:03:04;5.37;;;0.80;;
77738;SDS011;66904;59.926;30.404;2023-01-19T18:08:05;3.10;;;0.80;;
77738;SDS011;66904;59.926;30.404;2023-01-19T18:13:05;1.50;;;0.70;;
77738;SDS011;66904;59.926;30.404;2023-01-19T18:18:06;2.40;;;0.80;;
77738;SDS011;66904;59.926;30.404;2023-01-19T18:23:06;2.93;;;0.63;;
77738;SDS011;66904;59.926;30.404;2023-01-19T18:28:07;2.80;;;0.98;;
77738;SDS011;66904;59.926;30.404;2023-01-19T18:37:52;2.25;;;0.80;;
77738;SDS011;66904;59.926;30.404;2023-01-19T18:42:53;2.22;;;0.70;;
77738;SDS011;66904;59.926;30.404;2023-01-19T18:47:54;1.63;;;0.77;;
77738;SDS011;66904;59.926;30.404;2023-01-19T18:52:55;1.80;;;0.95;;
77738;SDS011;66904;59.926;30.404;2023-01-19T18:57:55;2.47;;;0.80;;
77738;SDS011;66904;59.926;30.404;2023-01-19T19:02:56;1.75;;;0.70;;
77738;SDS011;66904;59.926;30.404;2023-01-19T19:07:56;1.35;;;0.77;;
77738;SDS011;66904;59.926;30.404;2023-01-19T19:12:57;2.53;;;0.60;;
77738;SDS011;66904;59.926;30.404;2023-01-19T19:17:58;1.58;;;1.00;;
77738;SDS011;66904;59.926;30.404;2023-01-19T19:22:58;1.27;;;0.90;;
77738;SDS011;66904;59.926;30.404;2023-01-19T19:27:59;1.77;;;0.95;;
77738;SDS011;66904;59.926;30.404;2023-01-19T19:33:00;1.60;;;0.88;;
77738;SDS011;66904;59.926;30.404;2023-01-19T19:38:00;1.77;;;1.00;;
77738;SDS011;66904;59.926;30.404;2023-01-19T19:43:01;2.05;;;1.33;;
77738;SDS011;66904;59.926;30.404;2023-01-19T19:48:01;1.60;;;1.10;;
77738;SDS011;66904;59.926;30.404;2023-01-19T19:53:02;2.75;;;1.55;;
77738;SDS011;66904;59.926;30.404;2023-01-19T19:58:02;2.87;;;1.40;;
77738;SDS011;66904;59.926;30.404;2023-01-19T20:03:03;1.92;;;1.20;;
77738;SDS011;66904;59.926;30.404;2023-01-19T20:08:03;2.55;;;0.98;;
77738;SDS011;66904;59.926;30.404;2023-01-19T20:13:04;1.95;;;1.15;;
77738;SDS011;66904;59.926;30.404;2023-01-19T20:18:05;1.60;;;1.00;;
77738;SDS011;66904;59.926;30.404;2023-01-19T20:23:05;1.65;;;0.70;;
77738;SDS011;66904;59.926;30.404;2023-01-19T20:28:06;1.63;;;1.02;;
77738;SDS011;66904;59.926;30.404;2023-01-19T20:33:06;1.25;;;0.68;;
77738;SDS011;66904;59.926;30.404;2023-01-19T20:38:07;0.98;;;0.70;;
77738;SDS011;66904;59.926;30.404;2023-01-19T20:43:07;1.35;;;1.20;;
77738;SDS011;66904;59.926;30.404;2023-01-19T20:48:08;1.43;;;0.93;;
77738;SDS011;66904;59.926;30.404;2023-01-19T20:53:09;2.03;;;0.85;;
77738;SDS011;66904;59.926;30.404;2023-01-19T20:58:09;1.30;;;0.68;;
77738;SDS011;66904;59.926;30.404;2023-01-19T21:03:10;1.80;;;0.73;;
77738;SDS011;66904;59.926;30.404;2023-01-19T21:08:10;1.70;;;0.90;;
77738;SDS011;66904;59.926;30.404;2023-01-19T21:13:12;1.23;;;0.70;;
77738;SDS011;66904;59.926;30.404;2023-01-19T21:18:13;1.17;;;0.70;;
77738;SDS011;66904;59.926;30.404;2023-01-19T21:23:13;2.23;;;0.90;;
77738;SDS011;66904;59.926;30.404;2023-01-19T21:28:14;2.40;;;1.70;;
77738;SDS011;66904;59.926;30.404;2023-01-19T21:33:14;2.80;;;1.83;;
77738;SDS011;66904;59.926;30.404;2023-01-19T21:38:16;4.22;;;1.20;;
77738;SDS011;66904;59.926;30.404;2023-01-19T21:43:16;2.20;;;1.40;;
77738;SDS011;66904;59.926;30.404;2023-01-19T21:48:18;5.60;;;1.50;;
77738;SDS011;66904;59.926;30.404;2023-01-19T21:53:19;2.47;;;1.48;;
77738;SDS011;66904;59.926;30.404;2023-01-19T21:58:20;6.18;;;1.42;;
77738;SDS011;66904;59.926;30.404;2023-01-19T22:03:21;1.98;;;1.20;;
77738;SDS011;66904;59.926;30.404;2023-01-19T22:08:24;3.67;;;1.30;;
77738;SDS011;66904;59.926;30.404;2023-01-19T22:13:24;1.60;;;1.05;;
77738;SDS011;66904;59.926;30.404;2023-01-19T22:18:42;1.85;;;1.00;;
77738;SDS011;66904;59.926;30.404;2023-01-19T22:23:46;2.53;;;1.42;;
77738;SDS011;66904;59.926;30.404;2023-01-19T22:28:51;3.35;;;1.55;;
77738;SDS011;66904;59.926;30.404;2023-01-19T22:33:54;1.70;;;1.23;;
77738;SDS011;66904;59.926;30.404;2023-01-19T22:38:59;1.30;;;0.88;;
77738;SDS011;66904;59.926;30.404;2023-01-19T22:50:11;2.75;;;1.58;;
77738;SDS011;66904;59.926;30.404;2023-01-19T23:06:30;2.65;;;1.73;;
77738;SDS011;66904;59.926;30.404;2023-01-19T23:11:34;1.90;;;1.23;;
77738;SDS011;66904;59.926;30.404;2023-01-19T23:16:36;1.80;;;0.88;;
77738;SDS011;66904;59.926;30.404;2023-01-19T23:21:37;1.77;;;1.20;;
77738;SDS011;66904;59.926;30.404;2023-01-19T23:26:37;2.40;;;1.00;;
77738;SDS011;66904;59.926;30.404;2023-01-19T23:43:25;2.97;;;1.25;;
77738;SDS011;66904;59.926;30.404;2023-01-19T23:54:12;1.77;;;1.20;;
77738;SDS011;66904;59.926;30.404;2023-01-19T23:59:14;2.13;;;1.05;;
